Time;durP1;ratioP1;P1;durP2;ratioP2;P2;SDS_P1;SDS_P2;PMS_P1;PMS_P2;Temp;Humidity;BMP_temperature;BMP_pressure;BME280_temperature;BME280_humidity;BME280_pressure;Samples;Min_cycle;Max_cycle;Signal;HPM_P1;HPM_P2
2021/08/11 00:00:12;;;;;;;5.88;4.10;;;;;;;39.42;18.43;94559.56;5076108;28;20362;-51
2021/08/11 00:02:39;;;;;;;5.10;4.60;;;;;;;39.65;18.24;94555.28;5076382;28;20048;-53
2021/08/11 00:05:07;;;;;;;4.82;4.40;;;;;;;39.70;18.13;94551.91;5075532;28;20048;-52
2021/08/11 00:07:34;;;;;;;5.22;4.20;;;;;;;39.45;18.27;94553.91;5075324;28;20067;-52
2021/08/11 00:10:02;;;;;;;4.88;4.28;;;;;;;39.65;18.13;94539.63;5076136;28;20059;-51
2021/08/11 00:12:29;;;;;;;5.13;4.60;;;;;;;39.47;18.57;94539.78;5072757;28;20044;-51
2021/08/11 00:14:57;;;;;;;5.55;4.38;;;;;;;39.53;18.40;94537.16;5056619;28;20053;-51
2021/08/11 00:17:24;;;;;;;5.78;4.50;;;;;;;39.48;18.45;94541.28;5068820;28;20049;-53
2021/08/11 00:19:51;;;;;;;5.05;4.20;;;;;;;39.40;18.84;94551.84;5056066;28;20052;-53
2021/08/11 00:22:18;;;;;;;5.10;4.18;;;;;;;39.42;18.52;94543.91;5056135;28;20332;-53
2021/08/11 00:24:45;;;;;;;6.68;4.47;;;;;;;39.38;18.67;94543.34;5055572;28;20053;-53
2021/08/11 00:27:12;;;;;;;7.15;4.55;;;;;;;39.28;18.52;94538.41;5055814;28;20052;-52
2021/08/11 00:29:39;;;;;;;4.70;4.28;;;;;;;39.36;18.42;94551.25;5055572;28;20102;-52
2021/08/11 00:32:06;;;;;;;6.15;4.30;;;;;;;39.17;18.81;94549.88;5055842;28;20053;-53
2021/08/11 00:34:33;;;;;;;5.20;4.38;;;;;;;39.14;19.09;94553.56;5070526;28;20041;-54
2021/08/11 00:37:01;;;;;;;5.18;4.47;;;;;;;39.04;19.22;94552.09;5056569;28;20580;-51
2021/08/11 00:39:32;;;;;;;4.85;3.60;;;;;;;39.31;18.81;94554.66;5054063;28;20064;-52
2021/08/11 00:41:59;;;;;;;4.50;4.07;;;;;;;39.08;19.03;94561.66;5054798;28;20057;-53
2021/08/11 00:44:26;;;;;;;4.50;4.10;;;;;;;39.21;19.11;94560.66;5068182;28;20055;-52
2021/08/11 00:46:54;;;;;;;4.65;4.25;;;;;;;39.11;18.95;94558.00;5074217;28;20040;-51
2021/08/11 00:49:22;;;;;;;4.72;4.20;;;;;;;39.08;18.98;94556.19;5056052;28;20056;-52
2021/08/11 00:51:52;;;;;;;5.57;4.20;;;;;;;39.11;19.00;94558.00;5054434;28;20044;-54
2021/08/11 00:54:22;;;;;;;9.55;4.43;;;;;;;39.17;19.24;94552.63;5070334;28;20049;-54
2021/08/11 00:56:52;;;;;;;6.55;4.63;;;;;;;38.92;19.36;94561.28;5070878;28;20040;-52
2021/08/11 00:59:21;;;;;;;5.10;4.60;;;;;;;38.92;19.46;94551.09;5053810;28;20045;-53
2021/08/11 01:01:49;;;;;;;6.18;4.72;;;;;;;38.75;19.65;94558.19;5054214;28;20045;-51
2021/08/11 01:04:18;;;;;;;5.38;4.40;;;;;;;38.59;19.51;94555.84;5053713;28;20057;-55
2021/08/11 01:06:45;;;;;;;5.50;4.97;;;;;;;38.79;19.41;94554.09;5070360;28;20355;-53
2021/08/11 01:09:13;;;;;;;5.57;4.45;;;;;;;38.78;19.38;94549.84;5060122;28;20063;-52
2021/08/11 01:11:44;;;;;;;;;;;;;;;38.98;19.08;94546.50;5054353;28;20355;-54
2021/08/11 01:14:13;;;;;;;6.38;4.80;;;;;;;38.81;19.61;94550.88;5053379;28;19916;-51
2021/08/11 01:16:41;;;;;;;5.65;4.80;;;;;;;38.60;19.58;94551.88;5063548;28;20040;-56
2021/08/11 01:19:08;;;;;;;5.80;4.35;;;;;;;38.79;19.40;94536.94;5060582;28;20124;-55
2021/08/11 01:21:46;;;;;;;4.90;4.47;;;;;;;38.75;19.66;94541.78;5053204;28;20060;-53
2021/08/11 01:24:36;;;;;;;6.80;4.85;;;;;;;38.55;20.02;94543.09;5047824;28;20045;-53
2021/08/11 01:27:22;;;;;;;5.53;4.72;;;;;;;38.71;19.93;94539.25;5074373;28;20048;-55
2021/08/11 01:30:01;;;;;;;5.20;4.35;;;;;;;38.62;19.93;94527.59;5073923;28;20040;-53
2021/08/11 01:32:55;;;;;;;5.00;4.50;;;;;;;38.51;19.83;94528.84;5051917;28;20052;-55
2021/08/11 01:35:28;;;;;;;8.75;5.60;;;;;;;38.40;20.07;94520.41;5072572;28;20386;-54
2021/08/11 01:37:57;;;;;;;6.90;4.88;;;;;;;38.46;19.94;94518.56;5053446;28;20048;-54
2021/08/11 01:40:30;;;;;;;6.95;4.95;;;;;;;38.45;19.93;94519.78;5053969;28;20045;-54
2021/08/11 01:42:59;;;;;;;5.65;5.00;;;;;;;38.34;20.01;94514.09;5036332;28;20076;-53
2021/08/11 01:45:30;;;;;;;5.20;4.70;;;;;;;38.37;19.82;94513.16;5052075;28;20041;-52
2021/08/11 01:48:01;;;;;;;6.07;4.80;;;;;;;38.60;19.75;94513.66;5072145;28;20040;-51
2021/08/11 01:50:34;;;;;;;8.85;5.38;;;;;;;38.56;19.62;94511.84;5056861;28;20443;-53
2021/08/11 01:53:02;;;;;;;7.15;4.65;;;;;;;38.47;19.83;94525.53;5072598;28;20052;-52
2021/08/11 01:55:34;;;;;;;6.80;5.00;;;;;;;38.51;19.80;94528.09;5053682;28;20045;-51
2021/08/11 01:58:02;;;;;;;5.50;4.60;;;;;;;38.24;19.76;94520.78;5053447;28;20052;-53
2021/08/11 02:00:33;;;;;;;5.67;4.57;;;;;;;38.30;20.23;94518.97;5053905;28;20045;-52
2021/08/11 02:03:04;;;;;;;5.72;4.45;;;;;;;38.54;19.75;94517.03;5053320;28;20290;-53
2021/08/11 02:05:32;;;;;;;4.57;4.18;;;;;;;38.35;19.68;94521.06;5052929;28;20041;-52
2021/08/11 02:08:09;;;;;;;5.00;4.55;;;;;;;38.36;20.20;94519.84;5057004;28;20509;-53
2021/08/11 02:10:39;;;;;;;4.85;4.35;;;;;;;38.27;20.15;94521.88;5040522;28;20584;-53
2021/08/11 02:13:06;;;;;;;4.70;4.10;;;;;;;38.29;19.79;94522.91;5069938;28;20109;-52
2021/08/11 02:15:34;;;;;;;5.80;4.57;;;;;;;38.20;20.07;94531.13;5052885;28;20045;-51
2021/08/11 02:18:02;;;;;;;6.70;5.45;;;;;;;38.29;20.22;94528.38;5052328;28;20063;-52
2021/08/11 02:20:30;;;;;;;5.68;4.97;;;;;;;38.17;20.10;94521.88;5053249;28;20057;-53
2021/08/11 02:23:00;;;;;;;5.53;4.75;;;;;;;38.15;20.29;94531.72;5053406;28;20130;-52
2021/08/11 02:25:27;;;;;;;5.97;5.03;;;;;;;38.12;20.30;94535.38;5075438;28;20051;-53
2021/08/11 02:27:58;;;;;;;5.15;4.65;;;;;;;38.25;20.22;94533.22;5075184;28;20055;-54
2021/08/11 02:30:33;;;;;;;6.88;4.65;;;;;;;38.33;20.28;94530.94;5056221;28;20048;-55
2021/08/11 02:33:03;;;;;;;5.80;5.20;;;;;;;38.30;20.03;94529.88;5057271;28;20045;-52
2021/08/11 02:35:37;;;;;;;6.70;5.10;;;;;;;38.01;20.61;94529.66;5056273;28;20372;-53
2021/08/11 02:38:28;;;;;;;5.30;4.80;;;;;;;37.93;20.35;94534.66;5059329;28;20367;-52
2021/08/11 02:41:05;;;;;;;8.52;5.65;;;;;;;37.90;20.36;94527.41;5093322;28;20055;-51
2021/08/11 02:43:39;;;;;;;6.10;4.65;;;;;;;37.97;20.36;94530.56;5073255;28;20056;-53
2021/08/11 02:46:18;;;;;;;7.00;5.38;;;;;;;38.00;20.70;94531.63;5061912;28;20410;-54
2021/08/11 02:48:55;;;;;;;5.90;5.10;;;;;;;37.81;20.51;94522.75;5056726;28;20049;-52
2021/08/11 02:51:26;;;;;;;7.05;5.03;;;;;;;37.95;20.85;94516.63;5073260;28;20045;-51
2021/08/11 02:53:54;;;;;;;;;;;;;;;37.91;20.85;94521.50;5061783;28;20470;-50
2021/08/11 02:56:21;;;;;;;5.70;5.13;;;;;;;37.61;20.83;94515.03;5076743;28;19943;-51
2021/08/11 02:58:48;;;;;;;9.25;5.45;;;;;;;37.66;20.96;94505.47;5056386;28;20045;-52
2021/08/11 03:01:16;;;;;;;6.43;5.05;;;;;;;37.62;20.92;94515.78;5056374;28;20053;-52
2021/08/11 03:03:43;;;;;;;7.38;4.95;;;;;;;37.48;21.06;94524.59;5056061;28;20387;-51
2021/08/11 03:06:11;;;;;;;7.38;4.88;;;;;;;37.55;20.90;94516.09;5067691;28;20339;-52
2021/08/11 03:08:39;;;;;;;6.93;5.22;;;;;;;37.45;21.13;94520.78;5056219;28;20053;-51
2021/08/11 03:11:09;;;;;;;6.75;4.85;;;;;;;37.65;21.32;94520.31;5056634;28;20049;-53
2021/08/11 03:13:42;;;;;;;5.60;4.90;;;;;;;37.45;21.44;94515.34;5058374;28;20053;-52
2021/08/11 03:16:12;;;;;;;5.80;5.20;;;;;;;37.28;21.64;94509.47;5076152;28;20048;-52
2021/08/11 03:18:39;;;;;;;;;;;;;;;37.47;21.34;94509.44;5076457;28;20044;-52
2021/08/11 03:21:08;;;;;;;6.53;5.15;;;;;;;37.38;21.58;94512.94;5059261;28;19916;-52
2021/08/11 03:23:36;;;;;;;6.78;4.60;;;;;;;37.34;21.04;94523.25;5076687;28;20063;-51
2021/08/11 03:26:03;;;;;;;8.88;5.20;;;;;;;37.25;21.40;94529.47;5092945;28;20051;-50
2021/08/11 03:28:31;;;;;;;5.85;4.68;;;;;;;37.45;21.16;94525.50;5070781;28;20045;-54
2021/08/11 03:30:58;;;;;;;9.02;5.43;;;;;;;37.47;21.38;94531.25;5054576;28;20071;-52
2021/08/11 03:33:26;;;;;;;7.07;5.20;;;;;;;37.78;20.90;94528.38;5072309;28;20053;-53
2021/08/11 03:35:53;;;;;;;8.35;5.40;;;;;;;37.75;21.22;94532.78;5074917;28;20052;-55
2021/08/11 03:38:21;;;;;;;8.85;5.25;;;;;;;37.99;20.24;94537.53;5072694;28;20064;-53
2021/08/11 03:40:49;;;;;;;7.47;5.22;;;;;;;37.82;20.56;94535.16;5055939;28;20048;-54
2021/08/11 03:43:16;;;;;;;5.70;5.07;;;;;;;37.83;20.12;94542.13;5055544;28;20062;-53
2021/08/11 03:45:44;;;;;;;7.18;5.10;;;;;;;37.76;20.31;94539.72;5055542;28;20045;-55
2021/08/11 03:48:12;;;;;;;7.72;5.10;;;;;;;37.97;20.23;94560.56;5054988;28;20083;-55
2021/08/11 03:50:42;;;;;;;6.78;5.47;;;;;;;37.81;20.28;94560.94;5055662;28;20044;-52
2021/08/11 03:53:11;;;;;;;7.13;5.18;;;;;;;37.95;20.52;94565.72;5055517;28;20045;-53
2021/08/11 03:55:38;;;;;;;8.52;4.90;;;;;;;37.91;20.23;94569.84;5056093;28;20052;-53
2021/08/11 03:58:06;;;;;;;7.07;5.65;;;;;;;37.87;20.42;94564.56;5054419;28;20490;-53
2021/08/11 04:00:33;;;;;;;7.63;5.32;;;;;;;37.78;20.13;94561.84;5055457;28;20479;-52
2021/08/11 04:03:00;;;;;;;6.75;4.85;;;;;;;37.89;20.26;94567.56;5055922;28;20045;-52
2021/08/11 04:05:27;;;;;;;6.35;5.15;;;;;;;37.97;19.90;94562.53;5061212;28;20059;-54
2021/08/11 04:07:54;;;;;;;7.95;5.75;;;;;;;38.03;20.27;94566.19;5074575;28;20071;-54
2021/08/11 04:10:21;;;;;;;6.70;4.93;;;;;;;37.95;20.12;94560.28;5075937;28;20435;-56
2021/08/11 04:12:48;;;;;;;7.18;5.38;;;;;;;37.70;20.63;94562.56;5076338;28;20051;-53
2021/08/11 04:15:15;;;;;;;9.95;5.65;;;;;;;37.67;20.64;94566.97;5075576;28;20056;-51
2021/08/11 04:17:42;;;;;;;6.00;5.10;;;;;;;37.72;21.05;94563.66;5075734;28;20044;-54
2021/08/11 04:20:10;;;;;;;7.60;5.47;;;;;;;37.95;20.60;94565.72;5059189;28;20045;-51
2021/08/11 04:22:37;;;;;;;9.32;5.03;;;;;;;38.06;20.93;94570.72;5054834;28;20049;-57
2021/08/11 04:25:05;;;;;;;10.18;5.63;;;;;;;38.48;20.64;94568.00;5077595;28;20068;-54
2021/08/11 04:27:32;;;;;;;7.78;5.15;;;;;;;38.54;20.15;94566.16;5056533;28;21009;-53
2021/08/11 04:29:59;;;;;;;7.65;5.35;;;;;;;38.48;20.88;94570.72;5072146;28;20365;-50
2021/08/11 04:32:26;;;;;;;6.35;4.88;;;;;;;38.25;20.81;94568.69;5061359;28;20071;-58
2021/08/11 04:34:53;;;;;;;8.48;5.25;;;;;;;38.63;20.37;94567.38;5064291;28;20049;-59
2021/08/11 04:37:20;;;;;;;7.22;4.95;;;;;;;38.94;20.09;94573.25;5074158;28;20049;-61
2021/08/11 04:39:48;;;;;;;11.50;5.22;;;;;;;38.95;20.14;94565.81;5075284;28;20051;-65
2021/08/11 04:42:15;;;;;;;11.23;5.32;;;;;;;39.14;20.17;94567.22;5075069;28;20055;-68
2021/08/11 04:44:42;;;;;;;6.20;5.13;;;;;;;39.70;19.39;94563.59;5074762;28;20048;-74
2021/08/11 04:47:09;;;;;;;5.40;4.90;;;;;;;39.80;19.26;94555.28;5069243;28;20052;-64
2021/08/11 04:49:36;;;;;;;7.55;5.15;;;;;;;39.86;18.79;94561.63;5070215;28;20055;-54
2021/08/11 04:52:04;;;;;;;7.78;5.20;;;;;;;39.87;18.81;94568.59;5074626;28;20052;-62
2021/08/11 04:54:31;;;;;;;8.80;5.53;;;;;;;40.15;18.53;94571.84;5068079;28;20045;-64
2021/08/11 04:56:58;;;;;;;11.00;5.15;;;;;;;39.99;18.75;94570.31;5055355;28;20455;-64
2021/08/11 04:59:25;;;;;;;8.00;5.18;;;;;;;39.91;18.98;94566.44;5055353;28;20379;-63
2021/08/11 05:01:52;;;;;;;6.78;5.53;;;;;;;39.52;19.28;94569.22;5074826;28;20055;-66
2021/08/11 05:04:19;;;;;;;7.82;5.28;;;;;;;38.51;20.27;94558.88;5074545;28;20056;-65
2021/08/11 05:06:46;;;;;;;7.40;5.55;;;;;;;38.54;20.16;94568.16;5057846;28;20059;-65
2021/08/11 05:09:13;;;;;;;6.60;5.47;;;;;;;38.45;20.54;94566.19;5054821;28;20049;-64
2021/08/11 05:11:41;;;;;;;7.90;5.25;;;;;;;38.68;20.05;94569.47;5073917;28;20470;-66
2021/08/11 05:14:08;;;;;;;6.72;5.63;;;;;;;38.72;20.10;94576.25;5074565;28;20071;-64
2021/08/11 05:16:35;;;;;;;10.80;6.13;;;;;;;38.37;20.49;94578.69;5074929;28;20044;-66
2021/08/11 05:19:02;;;;;;;9.05;6.50;;;;;;;38.65;20.56;94575.84;5074992;28;20079;-66
2021/08/11 05:21:30;;;;;;;9.00;6.20;;;;;;;38.67;20.38;94567.94;5056914;28;20056;-65
2021/08/11 05:23:57;;;;;;;10.05;6.45;;;;;;;38.73;20.45;94575.03;5054529;28;20051;-65
2021/08/11 05:26:24;;;;;;;7.82;6.13;;;;;;;38.82;20.28;94579.72;5054885;28;20041;-65
2021/08/11 05:28:51;;;;;;;8.18;6.28;;;;;;;38.41;20.48;94582.00;5054450;28;20049;-64
2021/08/11 05:31:18;;;;;;;9.23;6.28;;;;;;;38.81;20.46;94584.41;5053970;28;20052;-65
2021/08/11 05:33:45;;;;;;;6.97;6.22;;;;;;;38.69;20.53;94576.44;5054682;28;20050;-65
2021/08/11 05:36:12;;;;;;;10.43;6.45;;;;;;;38.80;20.40;94576.69;5065855;28;20051;-64
2021/08/11 05:38:39;;;;;;;8.02;6.50;;;;;;;38.93;20.08;94574.47;5074923;28;20363;-65
2021/08/11 05:41:07;;;;;;;7.70;6.68;;;;;;;39.30;19.87;94587.91;5060652;28;20386;-59
2021/08/11 05:43:34;;;;;;;10.18;6.18;;;;;;;39.03;20.29;94581.38;5054396;28;20052;-65
2021/08/11 05:46:04;;;;;;;8.40;6.20;;;;;;;39.27;19.67;94575.94;5058467;28;20486;-66
2021/08/11 05:48:31;;;;;;;8.18;6.70;;;;;;;39.32;19.93;94583.50;5074597;28;20048;-62
2021/08/11 05:50:58;;;;;;;9.77;6.28;;;;;;;39.19;20.12;94591.19;5062060;28;20336;-61
2021/08/11 05:53:25;;;;;;;8.38;6.43;;;;;;;39.46;19.75;94588.22;5054144;28;20045;-64
2021/08/11 05:55:52;;;;;;;9.63;6.40;;;;;;;39.38;19.74;94592.56;5054274;28;20048;-62
2021/08/11 05:58:19;;;;;;;9.65;6.57;;;;;;;39.55;19.59;94584.69;5069394;28;20048;-62
2021/08/11 06:00:46;;;;;;;8.60;5.70;;;;;;;39.78;19.50;94586.59;5080721;28;20055;-61
2021/08/11 06:03:13;;;;;;;6.80;5.53;;;;;;;39.90;19.47;94581.34;5081042;28;20053;-59
2021/08/11 06:05:48;;;;;;;7.80;6.07;;;;;;;39.97;19.49;94581.00;5078921;28;20044;-61
2021/08/11 06:08:15;;;;;;;7.30;5.40;;;;;;;40.13;19.19;94577.03;5080906;28;20060;-65
2021/08/11 06:10:42;;;;;;;6.60;5.63;;;;;;;40.46;18.83;94571.34;5070873;28;20047;-66
2021/08/11 06:13:09;;;;;;;7.93;5.55;;;;;;;40.79;18.64;94571.81;5060973;28;20045;-65
2021/08/11 06:15:36;;;;;;;8.48;5.43;;;;;;;41.35;17.80;94563.56;5061093;28;20045;-65
2021/08/11 06:18:03;;;;;;;8.43;5.70;;;;;;;41.22;18.09;94558.41;5081068;28;20115;-65
2021/08/11 06:20:30;;;;;;;6.72;5.38;;;;;;;41.70;17.74;94560.75;5078734;28;20403;-55
2021/08/11 06:22:58;;;;;;;9.35;5.53;;;;;;;41.64;17.91;94559.88;5080932;28;20048;-59
2021/08/11 06:25:25;;;;;;;8.40;5.50;;;;;;;41.89;17.45;94559.16;5069247;28;20045;-60
2021/08/11 06:27:52;;;;;;;6.60;5.20;;;;;;;42.21;16.65;94556.47;5060969;28;20049;-60
2021/08/11 06:30:19;;;;;;;7.18;5.55;;;;;;;42.37;16.62;94553.06;5060643;28;20517;-61
2021/08/11 06:32:46;;;;;;;7.13;5.25;;;;;;;42.40;16.40;94557.59;5060708;28;20553;-55
2021/08/11 06:35:13;;;;;;;8.35;5.22;;;;;;;42.01;16.91;94560.78;5064382;28;20048;-55
2021/08/11 06:37:48;;;;;;;10.73;4.88;;;;;;;42.43;16.19;94553.88;5080899;28;20052;-62
2021/08/11 06:40:18;;;;;;;5.03;4.63;;;;;;;42.40;16.40;94552.09;5080578;28;20052;-56
2021/08/11 06:42:46;;;;;;;9.93;4.78;;;;;;;42.63;16.09;94544.78;5080047;28;20048;-59
2021/08/11 06:45:15;;;;;;;5.80;4.90;;;;;;;43.10;15.38;94548.78;5079474;28;20052;-59
2021/08/11 06:47:43;;;;;;;7.15;4.75;;;;;;;43.03;15.97;94546.50;5079358;28;20362;-61
2021/08/11 06:50:12;;;;;;;4.97;4.50;;;;;;;42.95;15.69;94548.97;5075551;28;20048;-61
2021/08/11 06:52:39;;;;;;;8.43;4.88;;;;;;;43.10;15.71;94548.78;5060954;28;20041;-59
2021/08/11 06:55:12;;;;;;;8.05;4.57;;;;;;;43.53;15.32;94549.44;5060631;28;20048;-59
2021/08/11 06:57:40;;;;;;;5.30;4.80;;;;;;;43.42;15.14;94545.91;5077189;28;20366;-61
2021/08/11 07:00:09;;;;;;;9.95;4.70;;;;;;;43.55;14.87;94546.94;5077118;28;20053;-58
2021/08/11 07:02:36;;;;;;;6.57;4.70;;;;;;;42.97;15.22;94545.75;5059761;28;20053;-61
2021/08/11 07:05:04;;;;;;;6.35;4.43;;;;;;;43.21;15.11;94539.84;5062725;28;20431;-53
2021/08/11 07:07:31;;;;;;;5.90;4.70;;;;;;;43.53;14.48;94548.69;5080285;28;20446;-60
2021/08/11 07:09:58;;;;;;;5.07;4.57;;;;;;;43.81;14.34;94557.78;5078309;28;20048;-59
2021/08/11 07:12:25;;;;;;;6.13;4.93;;;;;;;43.84;14.38;94551.28;5076717;28;20362;-56
2021/08/11 07:14:53;;;;;;;7.30;4.00;;;;;;;44.32;14.17;94563.31;5076678;28;20049;-58
2021/08/11 07:17:20;;;;;;;5.53;4.82;;;;;;;44.29;14.70;94562.34;5076652;28;20048;-54
2021/08/11 07:19:47;;;;;;;7.95;4.85;;;;;;;44.15;14.85;94566.09;5077311;28;20443;-53
2021/08/11 07:22:14;;;;;;;5.57;4.50;;;;;;;44.19;14.82;94564.56;5056626;28;20045;-60
2021/08/11 07:24:41;;;;;;;6.93;5.00;;;;;;;43.57;15.54;94558.22;5057224;28;20379;-55
2021/08/11 07:27:08;;;;;;;5.05;4.55;;;;;;;44.25;15.00;94553.56;5057213;28;20057;-56
2021/08/11 07:29:36;;;;;;;5.30;4.63;;;;;;;44.15;14.79;94547.56;5056908;28;20051;-58
2021/08/11 07:32:03;;;;;;;7.10;5.00;;;;;;;44.86;14.40;94552.75;5074494;28;20425;-55
2021/08/11 07:34:30;;;;;;;6.75;4.88;;;;;;;45.60;13.88;94551.94;5076869;28;20059;-55
2021/08/11 07:36:57;;;;;;;6.03;4.72;;;;;;;45.06;14.07;94554.44;5058470;28;20341;-59
2021/08/11 07:39:25;;;;;;;5.63;4.40;;;;;;;44.12;14.99;94559.56;5056675;28;20080;-54
2021/08/11 07:41:52;;;;;;;7.35;5.00;;;;;;;44.45;14.65;94558.03;5056290;28;20041;-58
2021/08/11 07:44:19;;;;;;;6.88;4.72;;;;;;;44.41;14.81;94557.56;5056825;28;20052;-55
2021/08/11 07:46:46;;;;;;;6.72;4.93;;;;;;;44.07;15.03;94563.09;5067143;28;20051;-58
2021/08/11 07:49:13;;;;;;;5.13;4.60;;;;;;;44.67;14.40;94560.78;5076350;28;20063;-53
2021/08/11 07:51:40;;;;;;;6.15;4.95;;;;;;;45.03;14.06;94560.97;5075626;28;20090;-58
2021/08/11 07:54:07;;;;;;;6.45;4.93;;;;;;;44.70;14.50;94545.25;5076781;28;20435;-55
2021/08/11 07:56:34;;;;;;;8.40;4.65;;;;;;;44.88;14.14;94544.72;5076178;28;20055;-58
2021/08/11 07:59:01;;;;;;;6.60;4.70;;;;;;;44.99;14.28;94539.16;5076776;28;20052;-59
2021/08/11 08:01:28;;;;;;;6.05;4.63;;;;;;;45.16;14.00;94537.09;5063373;28;20114;-61
2021/08/11 08:03:55;;;;;;;6.28;4.45;;;;;;;45.08;13.97;94549.91;5056086;28;20079;-59
2021/08/11 08:06:22;;;;;;;6.18;4.82;;;;;;;45.48;13.67;94545.72;5069227;28;20052;-58
2021/08/11 08:08:49;;;;;;;7.00;4.28;;;;;;;45.55;13.60;94557.50;5076579;28;20063;-58
2021/08/11 08:11:16;;;;;;;4.85;4.35;;;;;;;45.71;13.15;94543.59;5065192;28;20456;-55
2021/08/11 08:13:45;;;;;;;5.03;4.47;;;;;;;45.46;13.15;94547.50;5056250;28;20041;-57
2021/08/11 08:16:16;;;;;;;6.53;4.30;;;;;;;45.44;13.32;94544.50;5061746;28;20047;-58
2021/08/11 08:18:43;;;;;;;5.28;4.45;;;;;;;45.69;13.05;94550.91;5076187;28;20048;-57
2021/08/11 08:21:10;;;;;;;5.13;4.63;;;;;;;45.68;12.87;94547.41;5075274;28;20055;-57
2021/08/11 08:23:39;;;;;;;6.88;4.55;;;;;;;45.47;12.91;94537.97;5075029;28;20056;-58
2021/08/11 08:26:06;;;;;;;5.32;4.70;;;;;;;45.96;12.33;94535.41;5076176;28;20462;-54
2021/08/11 08:28:34;;;;;;;5.50;4.10;;;;;;;45.86;12.30;94529.47;5075612;28;20051;-58
2021/08/11 08:31:01;;;;;;;5.10;4.32;;;;;;;45.93;11.93;94539.19;5075037;28;20048;-59
2021/08/11 08:33:28;;;;;;;4.80;4.30;;;;;;;45.54;11.77;94542.94;5074967;28;20048;-54
2021/08/11 08:35:55;;;;;;;7.28;4.18;;;;;;;46.11;11.77;94537.84;5075548;28;20052;-58
2021/08/11 08:38:22;;;;;;;6.30;4.63;;;;;;;46.09;11.82;94535.59;5075755;28;20052;-60
2021/08/11 08:40:50;;;;;;;4.88;4.18;;;;;;;46.06;11.69;94533.84;5075424;28;20079;-58
2021/08/11 08:43:17;;;;;;;4.43;4.03;;;;;;;45.90;11.53;94526.41;5075105;28;20447;-55
2021/08/11 08:45:45;;;;;;;8.00;4.40;;;;;;;46.54;11.53;94532.41;5075291;28;20048;-57
2021/08/11 08:48:12;;;;;;;5.72;4.65;;;;;;;46.36;11.43;94526.31;5075497;28;20041;-56
2021/08/11 08:50:41;;;;;;;6.22;4.63;;;;;;;45.90;11.30;94529.94;5071278;28;20052;-60
2021/08/11 08:53:09;;;;;;;5.13;4.18;;;;;;;46.50;11.09;94518.91;5070260;28;20048;-56
2021/08/11 08:55:37;;;;;;;5.18;4.53;;;;;;;46.23;11.12;94528.91;5073862;28;20048;-56
2021/08/11 08:58:05;;;;;;;5.40;4.20;;;;;;;46.28;11.27;94517.06;5075370;28;20436;-57
2021/08/11 09:00:33;;;;;;;4.60;3.92;;;;;;;46.50;10.60;94509.84;5072705;28;20054;-60
2021/08/11 09:03:00;;;;;;;4.82;4.07;;;;;;;46.09;11.11;94507.97;5054978;28;20387;-57
2021/08/11 09:05:28;;;;;;;4.93;3.97;;;;;;;45.99;10.97;94513.03;5060073;28;20044;-55
2021/08/11 09:07:55;;;;;;;4.80;4.18;;;;;;;45.97;11.38;94506.53;5073424;28;20060;-58
2021/08/11 09:10:30;;;;;;;6.82;4.30;;;;;;;46.10;11.12;94506.69;5073994;28;20044;-58
2021/08/11 09:12:59;;;;;;;8.73;6.68;;;;;;;46.56;10.55;94516.06;5055066;28;20044;-54
2021/08/11 09:15:41;;;;;;;5.05;4.45;;;;;;;46.30;10.89;94517.28;5055012;28;20049;-55
2021/08/11 09:18:19;;;;;;;6.03;3.92;;;;;;;45.99;10.75;94512.28;5055109;28;20047;-58
2021/08/11 09:20:48;;;;;;;4.97;4.03;;;;;;;45.71;10.94;94512.50;5057372;28;20052;-61
2021/08/11 09:23:32;;;;;;;4.50;3.80;;;;;;;46.68;10.21;94511.94;5074317;28;20052;-53
2021/08/11 09:26:02;;;;;;;4.68;4.25;;;;;;;46.51;10.50;94505.81;5074968;28;20044;-57
2021/08/11 09:28:31;;;;;;;4.35;3.97;;;;;;;46.73;10.70;94502.81;5074542;28;20044;-60
2021/08/11 09:30:59;;;;;;;5.68;3.92;;;;;;;46.37;10.67;94516.78;5069218;28;20044;-58
2021/08/11 09:33:26;;;;;;;4.90;4.05;;;;;;;47.11;10.18;94508.41;5053157;28;20047;-61
2021/08/11 09:35:54;;;;;;;5.57;4.40;;;;;;;47.00;10.08;94504.53;5063954;28;20343;-58
2021/08/11 09:38:21;;;;;;;4.28;3.88;;;;;;;47.00;10.25;94504.53;5073819;28;20048;-60
2021/08/11 09:40:49;;;;;;;5.70;4.07;;;;;;;46.48;10.33;94495.81;5070819;28;20045;-61
2021/08/11 09:43:18;;;;;;;4.90;4.13;;;;;;;46.88;10.56;94486.59;5054056;28;20128;-59
2021/08/11 09:45:45;;;;;;;8.27;4.53;;;;;;;46.77;10.79;94486.72;5055403;28;20041;-59
2021/08/11 09:48:15;;;;;;;4.63;4.22;;;;;;;47.32;10.52;94490.06;5074646;28;20461;-61
2021/08/11 09:51:01;;;;;;;5.97;4.45;;;;;;;46.77;9.97;94483.94;5071122;28;20443;-58
2021/08/11 09:53:31;;;;;;;7.60;4.15;;;;;;;47.30;9.77;94492.59;5053930;28;20359;-63
2021/08/11 09:56:05;;;;;;;;;;;;;;;46.98;10.07;94484.19;5055077;28;20045;-60
2021/08/11 09:58:34;;;;;;;4.28;3.85;;;;;;;46.51;10.00;94480.94;5054558;28;19920;-55
2021/08/11 10:01:02;;;;;;;4.63;4.00;;;;;;;46.60;9.55;94473.06;5067636;28;20049;-61
2021/08/11 10:03:29;;;;;;;4.90;4.00;;;;;;;47.08;9.40;94470.72;5053323;28;20041;-58
2021/08/11 10:05:56;;;;;;;4.50;4.10;;;;;;;46.67;9.50;94471.72;5063268;28;20131;-60
2021/08/11 10:08:34;;;;;;;4.40;3.83;;;;;;;46.63;9.49;94472.03;5074262;28;20075;-59
2021/08/11 10:11:02;;;;;;;4.97;3.78;;;;;;;46.28;9.77;94469.34;5069956;28;20041;-60
2021/08/11 10:13:31;;;;;;;4.70;4.20;;;;;;;46.74;9.59;94471.13;5053816;28;20045;-60
2021/08/11 10:15:58;;;;;;;5.93;3.95;;;;;;;47.16;9.33;94477.22;5057395;28;20048;-59
2021/08/11 10:18:27;;;;;;;4.32;3.92;;;;;;;47.02;9.43;94470.81;5074513;28;20055;-61
2021/08/11 10:20:59;;;;;;;5.43;4.05;;;;;;;46.55;9.96;94467.59;5074060;28;20079;-60
2021/08/11 10:23:28;;;;;;;5.15;4.43;;;;;;;47.04;9.90;94471.03;5072133;28;20056;-57
2021/08/11 10:25:55;;;;;;;5.85;4.50;;;;;;;47.30;9.91;94464.94;5074301;28;20045;-58
2021/08/11 10:28:23;;;;;;;5.22;4.15;;;;;;;46.81;9.87;94462.28;5073478;28;20051;-57
2021/08/11 10:30:52;;;;;;;4.53;4.13;;;;;;;46.78;9.71;94460.56;5073917;28;20045;-61
2021/08/11 10:33:20;;;;;;;4.93;4.00;;;;;;;47.24;9.54;94456.72;5073739;28;20438;-57
2021/08/11 10:35:48;;;;;;;4.88;4.00;;;;;;;47.18;9.73;94464.34;5065140;28;20060;-60
2021/08/11 10:38:16;;;;;;;7.22;4.30;;;;;;;46.92;9.43;94456.63;5070177;28;20040;-59
2021/08/11 10:40:50;;;;;;;6.70;4.15;;;;;;;47.17;9.51;94451.03;5073871;28;20048;-57
2021/08/11 10:43:17;;;;;;;5.20;4.05;;;;;;;47.49;9.60;94440.78;5073712;28;20446;-60
2021/08/11 10:45:53;;;;;;;4.50;3.90;;;;;;;47.73;9.16;94433.59;5074370;28;20045;-60
2021/08/11 10:48:20;;;;;;;5.28;4.38;;;;;;;47.12;10.11;94432.50;5056681;28;20041;-59
2021/08/11 10:50:47;;;;;;;7.00;4.10;;;;;;;46.72;9.88;94437.72;5059732;28;20045;-61
2021/08/11 10:53:15;;;;;;;4.88;4.13;;;;;;;47.05;9.64;94439.34;5057543;28;20048;-60
2021/08/11 10:55:46;;;;;;;5.22;4.10;;;;;;;47.23;9.87;94438.63;5057130;28;20057;-59
2021/08/11 10:58:32;;;;;;;6.90;3.85;;;;;;;47.24;9.90;94428.28;5056923;28;20052;-58
2021/08/11 11:00:59;;;;;;;5.35;4.55;;;;;;;46.74;11.18;94417.84;5057642;28;20040;-58
2021/08/11 11:03:49;;;;;;;5.63;4.90;;;;;;;46.55;10.96;94420.59;5057147;28;20041;-55
2021/08/11 11:06:16;;;;;;;9.27;5.05;;;;;;;46.13;11.58;94420.03;5069676;28;20057;-60
2021/08/11 11:08:44;;;;;;;5.22;4.78;;;;;;;45.79;11.88;94414.78;5075016;28;20055;-53
2021/08/11 11:11:33;;;;;;;5.60;4.45;;;;;;;45.85;11.01;94414.00;5074071;28;20048;-67
2021/08/11 11:14:02;;;;;;;6.07;5.30;;;;;;;45.91;11.31;94414.69;5077284;28;20044;-73
2021/08/11 11:17:02;;;;;;;5.95;4.47;;;;;;;45.61;10.46;94412.69;5069024;28;20375;-71
2021/08/11 11:19:31;;;;;;;4.50;4.10;;;;;;;45.72;10.12;94409.84;5034171;28;20056;-71
2021/08/11 11:21:58;;;;;;;4.70;3.95;;;;;;;45.46;10.05;94404.00;5065494;28;20041;-71
2021/08/11 11:24:48;;;;;;;4.60;4.20;;;;;;;45.41;9.85;94404.81;5055919;28;20053;-71
2021/08/11 11:27:56;;;;;;;5.00;4.20;;;;;;;45.64;10.10;94403.41;5056110;28;20459;-53
2021/08/11 11:30:26;;;;;;;4.95;4.30;;;;;;;45.76;10.35;94393.75;5057129;28;20057;-57
2021/08/11 11:32:56;;;;;;;5.15;4.72;;;;;;;45.72;10.44;94389.75;5072781;28;20320;-77
2021/08/11 11:35:23;;;;;;;;;;;;;;;45.61;10.57;94393.34;5076729;28;20355;-77
2021/08/11 11:38:23;;;;;;;4.50;4.10;;;;;;;45.53;10.58;94389.63;5076789;28;19916;-79
2021/08/11 11:40:56;;;;;;;5.22;4.15;;;;;;;45.43;10.44;94382.97;5043616;28;20060;-76
2021/08/11 11:43:28;;;;;;;5.22;4.07;;;;;;;45.48;10.72;94384.94;5062002;28;20051;-76